Time;durP1;ratioP1;P1;durP2;ratioP2;P2;SDS_P1;SDS_P2;PMS_P1;PMS_P2;Temp;Humidity;BMP_temperature;BMP_pressure;BME280_temperature;BME280_humidity;BME280_pressure;Samples;Min_cycle;Max_cycle;Signal;HPM_P1;HPM_P2
2021/12/07 00:01:22;;;;;;;12.20;6.93;;;;;;;-0.11;100.00;95004.34;20441588;28;20071;-74
2021/12/07 00:11:26;;;;;;;14.20;8.35;;;;;;;-0.02;100.00;95008.84;20413914;28;20307;-73
2021/12/07 00:21:26;;;;;;;21.33;8.27;;;;;;;0.13;100.00;95023.00;20421409;28;20515;-73
2021/12/07 00:31:30;;;;;;;15.40;6.65;;;;;;;0.19;100.00;95012.38;20439595;28;20078;-74
2021/12/07 00:41:31;;;;;;;15.68;5.28;;;;;;;0.19;100.00;95014.97;20450461;28;20043;-73
2021/12/07 00:51:31;;;;;;;21.17;6.38;;;;;;;0.25;100.00;95022.84;20432093;28;20059;-74
2021/12/07 01:01:33;;;;;;;17.55;5.68;;;;;;;0.39;100.00;95034.38;20444125;28;20326;-74
2021/12/07 02:02:44;;;;;;;;;;;;;;;0.57;100.00;95169.44;20444888;28;20050;-74
2021/12/07 02:12:47;;;;;;;16.38;4.60;;;;;;;0.49;100.00;95177.72;20439532;28;19927;-73
2021/12/07 02:22:48;;;;;;;18.27;4.97;;;;;;;0.42;100.00;95197.97;20457535;28;20346;-75
2021/12/07 02:32:52;;;;;;;16.17;4.35;;;;;;;0.34;100.00;95208.84;20461974;28;20045;-74
2021/12/07 02:42:52;;;;;;;18.95;5.15;;;;;;;0.40;100.00;95215.66;20463812;28;20495;-75
2021/12/07 02:52:53;;;;;;;19.70;5.70;;;;;;;0.43;100.00;95232.63;20413391;28;20487;-74
2021/12/07 03:03:02;;;;;;;18.95;4.68;;;;;;;0.42;100.00;95228.44;20452536;28;20048;-74
2021/12/07 03:33:41;;;;;;;22.45;5.80;;;;;;;0.31;100.00;95285.66;20404324;28;20349;-73
2021/12/07 03:43:42;;;;;;;23.70;6.38;;;;;;;0.26;100.00;95293.41;20406578;28;20043;-73
2021/12/07 03:53:43;;;;;;;22.33;6.97;;;;;;;0.25;100.00;95319.72;20389217;28;20345;-74
2021/12/07 04:03:45;;;;;;;19.90;6.28;;;;;;;0.22;100.00;95333.97;20392411;28;20082;-73
2021/12/07 04:13:45;;;;;;;17.27;4.80;;;;;;;0.38;100.00;95340.94;20396005;28;20035;-73
2021/12/07 04:23:46;;;;;;;21.30;5.22;;;;;;;0.29;100.00;95354.66;20376794;28;20635;-74
2021/12/07 04:33:46;;;;;;;25.60;6.50;;;;;;;0.37;100.00;95356.84;20398976;28;20042;-74
2021/12/07 04:43:48;;;;;;;19.08;5.35;;;;;;;0.37;100.00;95351.63;20438353;28;20050;-73
2021/12/07 05:04:16;;;;;;;24.10;6.38;;;;;;;0.25;100.00;95392.63;20432563;28;20051;-73
2021/12/07 05:14:25;;;;;;;19.23;6.38;;;;;;;0.25;100.00;95388.22;20463852;28;20043;-73
2021/12/07 05:24:26;;;;;;;16.30;6.10;;;;;;;0.20;100.00;95408.97;20455769;28;20048;-73
2021/12/07 05:44:39;;;;;;;17.85;5.35;;;;;;;0.15;100.00;95422.72;20427812;28;20632;-72
2021/12/07 05:54:40;;;;;;;20.10;6.43;;;;;;;0.10;100.00;95435.69;20429501;28;20738;-74
2021/12/07 06:04:40;;;;;;;23.63;5.95;;;;;;;0.18;100.00;95445.69;20449536;28;20082;-73
2021/12/07 06:14:43;;;;;;;21.83;5.45;;;;;;;0.07;100.00;95464.00;20432618;28;20637;-73
2021/12/07 06:24:44;;;;;;;20.63;5.50;;;;;;;0.05;100.00;95477.25;20428349;28;20047;-73
2021/12/07 06:34:44;;;;;;;28.33;6.15;;;;;;;0.05;100.00;95492.09;20423632;28;20086;-73
2021/12/07 06:44:45;;;;;;;16.20;4.93;;;;;;;0.08;100.00;95495.00;20462367;28;20435;-74
2021/12/07 06:54:45;;;;;;;22.08;5.57;;;;;;;0.05;100.00;95492.88;20452638;28;20035;-78
2021/12/07 07:04:46;;;;;;;14.90;4.25;;;;;;;0.07;100.00;95501.22;20451456;28;20130;-74
2021/12/07 07:14:47;;;;;;;14.65;4.07;;;;;;;0.08;100.00;95508.03;20432757;28;20035;-74
2021/12/07 07:24:47;;;;;;;26.88;4.97;;;;;;;0.02;100.00;95510.78;20422081;28;20479;-74
2021/12/07 07:34:48;;;;;;;16.95;4.50;;;;;;;0.06;100.00;95523.09;20427719;28;20590;-79
2021/12/07 07:44:48;;;;;;;27.48;4.88;;;;;;;0.16;100.00;95536.28;20463552;28;20666;-78
2021/12/07 07:54:48;;;;;;;17.35;5.03;;;;;;;0.17;100.00;95522.22;20442790;28;20284;-78
2021/12/07 08:04:49;;;;;;;22.67;6.03;;;;;;;0.23;100.00;95537.94;20447627;28;20480;-77
2021/12/07 08:14:49;;;;;;;20.15;5.85;;;;;;;0.23;100.00;95549.13;20405925;28;20502;-77
2021/12/07 08:24:50;;;;;;;28.42;6.50;;;;;;;0.30;100.00;95562.75;20396673;28;20219;-78
2021/12/07 08:34:51;;;;;;;22.08;6.70;;;;;;;0.34;100.00;95576.88;20379154;28;20051;-76
2021/12/07 08:44:51;;;;;;;26.15;6.25;;;;;;;0.37;100.00;95578.25;20395339;28;20480;-77
2021/12/07 09:04:53;;;;;;;19.13;4.35;;;;;;;1.06;100.00;95567.41;20417908;28;21602;-77
2021/12/07 09:14:54;;;;;;;15.20;4.47;;;;;;;0.67;100.00;95561.47;20421855;28;20043;-77
2021/12/07 09:24:55;;;;;;;19.90;5.00;;;;;;;0.64;100.00;95547.09;20415003;28;20139;-78
2021/12/07 09:34:55;;;;;;;18.33;4.75;;;;;;;0.67;100.00;95532.78;20427111;28;20134;-76
2021/12/07 09:44:55;;;;;;;21.25;3.95;;;;;;;0.71;100.00;95539.09;20420994;28;20043;-77
2021/12/07 09:54:56;;;;;;;17.98;4.35;;;;;;;1.14;100.00;95524.47;20419183;28;20173;-77
2021/12/07 10:04:56;;;;;;;16.73;3.30;;;;;;;0.79;100.00;95536.06;20421104;28;20107;-76
2021/12/07 10:15:04;;;;;;;15.35;4.88;;;;;;;0.65;100.00;95530.41;20396046;28;20047;-76
2021/12/07 10:25:05;;;;;;;15.82;3.65;;;;;;;0.85;100.00;95531.72;20384990;28;20058;-76
2021/12/07 10:35:29;;;;;;;15.75;3.45;;;;;;;0.94;100.00;95525.03;20398798;28;20047;-75
2021/12/07 10:45:30;;;;;;;17.35;3.88;;;;;;;1.17;100.00;95508.38;20411413;28;20051;-76
2021/12/07 10:55:30;;;;;;;18.42;5.25;;;;;;;1.00;100.00;95488.38;20438086;28;20081;-76
2021/12/07 11:05:34;;;;;;;17.30;3.60;;;;;;;1.08;100.00;95455.03;20412187;28;20174;-76
2021/12/07 11:15:42;;;;;;;15.57;4.25;;;;;;;1.22;100.00;95448.41;20402026;28;20043;-77
2021/12/07 11:35:54;;;;;;;13.98;3.58;;;;;;;1.09;100.00;95414.91;20402310;28;20616;-76
2021/12/07 11:45:55;;;;;;;15.52;5.38;;;;;;;0.91;100.00;95398.56;20388221;28;20074;-75
2021/12/07 11:55:56;;;;;;;13.38;4.75;;;;;;;1.08;100.00;95398.44;20395064;28;20228;-76
2021/12/07 12:05:56;;;;;;;12.25;4.32;;;;;;;0.99;100.00;95390.28;20389028;28;20045;-77
2021/12/07 12:16:33;;;;;;;18.70;4.53;;;;;;;0.95;100.00;95393.66;20411656;28;20062;-77
2021/12/07 12:26:35;;;;;;;14.00;4.33;;;;;;;1.02;100.00;95372.59;20398319;28;20047;-75
2021/12/07 12:36:36;;;;;;;12.05;5.03;;;;;;;1.04;100.00;95362.69;20382968;28;22808;-75
2021/12/07 12:46:37;;;;;;;21.85;5.63;;;;;;;1.05;100.00;95356.47;20390364;28;20051;-77
2021/12/07 12:56:39;;;;;;;16.27;5.70;;;;;;;1.03;100.00;95335.06;20402193;28;20047;-75
2021/12/07 13:06:47;;;;;;;19.27;5.70;;;;;;;0.97;100.00;95313.34;20394545;28;20051;-76
2021/12/07 13:17:02;;;;;;;17.00;4.95;;;;;;;1.14;100.00;95287.16;20439405;28;20260;-77
2021/12/07 13:27:11;;;;;;;17.85;6.63;;;;;;;1.03;100.00;95249.78;20394007;28;20028;-76
2021/12/07 13:37:13;;;;;;;20.48;5.57;;;;;;;0.94;100.00;95252.06;20395529;28;20098;-76
2021/12/07 13:47:19;;;;;;;20.35;5.05;;;;;;;0.91;100.00;95217.91;20449231;28;20227;-76
2021/12/07 13:57:23;;;;;;;21.07;4.37;;;;;;;0.92;100.00;95211.63;20370687;28;20039;-75
2021/12/07 14:07:24;;;;;;;13.30;3.63;;;;;;;1.06;100.00;95194.50;20391645;28;20047;-75
2021/12/07 14:17:24;;;;;;;13.48;4.05;;;;;;;1.03;100.00;95182.00;20427476;28;20078;-76
2021/12/07 14:27:26;;;;;;;12.45;3.53;;;;;;;0.90;100.00;95158.94;20420205;28;20046;-75
2021/12/07 14:37:27;;;;;;;19.80;4.18;;;;;;;0.85;100.00;95136.25;20404483;28;20052;-78
2021/12/07 14:47:27;;;;;;;13.70;3.60;;;;;;;0.96;100.00;95100.59;20405914;28;20065;-76
2021/12/07 14:57:28;;;;;;;22.45;4.40;;;;;;;0.86;100.00;95088.31;20413261;28;20032;-78
2021/12/07 15:07:33;;;;;;;17.73;4.43;;;;;;;0.65;100.00;95082.19;20423547;28;20057;-79
2021/12/07 15:17:35;;;;;;;15.75;5.03;;;;;;;0.53;100.00;95052.94;20410718;28;20467;-77
2021/12/07 15:27:35;;;;;;;24.38;4.90;;;;;;;0.52;100.00;95052.16;20406741;28;20054;-76
2021/12/07 15:37:35;;;;;;;18.80;5.03;;;;;;;0.50;100.00;95049.03;20399400;28;20389;-78
2021/12/07 15:47:40;;;;;;;20.55;5.50;;;;;;;0.64;100.00;95019.91;20406944;28;20066;-78
2021/12/07 15:57:51;;;;;;;16.90;5.75;;;;;;;0.64;100.00;95002.47;20403570;28;20134;-77
2021/12/07 16:07:52;;;;;;;21.27;5.65;;;;;;;0.64;100.00;94970.41;20389256;28;20134;-78
2021/12/07 16:17:55;;;;;;;16.85;5.22;;;;;;;0.67;100.00;94943.81;20405513;28;20056;-78
2021/12/07 16:27:56;;;;;;;14.10;5.28;;;;;;;0.66;100.00;94942.28;20397640;28;20066;-78
2021/12/07 16:37:57;;;;;;;23.27;5.32;;;;;;;0.69;100.00;94928.72;20398007;28;20584;-79
2021/12/07 16:48:00;;;;;;;17.45;5.40;;;;;;;0.62;100.00;94917.78;20407018;28;20059;-80
2021/12/07 16:58:02;;;;;;;15.63;4.60;;;;;;;0.69;100.00;94885.19;20408961;28;20134;-78
2021/12/07 17:08:03;;;;;;;14.88;4.70;;;;;;;0.76;100.00;94864.13;20391367;28;20071;-77
2021/12/07 17:18:04;;;;;;;12.18;4.47;;;;;;;0.79;100.00;94850.56;20394116;28;22341;-77
2021/12/07 17:28:05;;;;;;;12.38;4.32;;;;;;;0.77;100.00;94819.53;20394543;28;20078;-79
2021/12/07 17:38:06;;;;;;;26.95;8.00;;;;;;;0.77;100.00;94792.69;20390832;28;20444;-77
2021/12/07 17:48:07;;;;;;;20.15;6.25;;;;;;;0.78;100.00;94763.00;20405351;28;20063;-74
2021/12/07 17:58:07;;;;;;;17.08;5.72;;;;;;;0.83;100.00;94734.31;20362633;28;20043;-74
2021/12/07 18:08:08;;;;;;;21.55;7.25;;;;;;;0.78;100.00;94706.44;20397476;28;20146;-75
2021/12/07 18:18:09;;;;;;;16.23;5.18;;;;;;;0.85;100.00;94682.72;20440675;28;20135;-74
2021/12/07 18:28:10;;;;;;;20.60;6.65;;;;;;;0.91;100.00;94641.78;20455197;28;20035;-74
2021/12/07 18:38:14;;;;;;;19.05;5.78;;;;;;;0.95;100.00;94619.34;20420707;28;20114;-76
2021/12/07 18:48:14;;;;;;;15.45;5.72;;;;;;;0.95;100.00;94598.50;20433159;28;20519;-74
2021/12/07 18:58:14;;;;;;;22.38;7.95;;;;;;;0.96;100.00;94579.19;20397556;28;20043;-75
2021/12/07 19:08:15;;;;;;;18.27;5.90;;;;;;;0.94;100.00;94550.00;20432425;28;20055;-75
2021/12/07 19:18:16;;;;;;;15.45;5.13;;;;;;;0.92;100.00;94502.56;20392075;28;20546;-74
2021/12/07 19:28:17;;;;;;;14.48;5.43;;;;;;;0.86;100.00;94457.53;20382418;28;22108;-74
2021/12/07 19:38:19;;;;;;;14.95;5.07;;;;;;;0.87;100.00;94456.47;20411458;28;20089;-74
2021/12/07 19:48:20;;;;;;;11.50;3.90;;;;;;;0.90;100.00;94445.50;20403465;28;20083;-74
2021/12/07 19:58:21;;;;;;;9.32;3.88;;;;;;;0.88;100.00;94410.31;20432505;28;20039;-74
2021/12/07 20:08:22;;;;;;;12.73;3.30;;;;;;;0.89;100.00;94383.22;20425548;28;20602;-74
2021/12/07 20:18:23;;;;;;;11.25;3.45;;;;;;;0.85;100.00;94356.91;20407312;28;20059;-74
2021/12/07 20:28:26;;;;;;;17.65;5.22;;;;;;;0.88;100.00;94364.22;20428481;28;20038;-72
2021/12/07 20:38:26;;;;;;;11.15;3.30;;;;;;;0.91;100.00;94350.63;20422015;28;20059;-73
2021/12/07 20:48:27;;;;;;;9.10;2.85;;;;;;;0.95;100.00;94341.19;20433256;28;20058;-73
2021/12/07 20:58:27;;;;;;;13.93;4.35;;;;;;;0.95;100.00;94298.72;20439534;28;20314;-73
2021/12/07 21:08:31;;;;;;;16.10;3.92;;;;;;;0.97;100.00;94253.06;20370166;28;20055;-73
2021/12/07 21:18:31;;;;;;;9.50;3.17;;;;;;;0.97;100.00;94247.88;20365012;28;20047;-73
2021/12/07 21:28:32;;;;;;;11.57;3.65;;;;;;;0.99;100.00;94237.16;20385270;28;20129;-73
2021/12/07 21:38:32;;;;;;;12.25;3.70;;;;;;;0.95;100.00;94184.81;20343245;28;20496;-73
2021/12/07 21:48:33;;;;;;;9.75;3.75;;;;;;;0.87;100.00;94208.88;20373291;28;20507;-72
2021/12/07 21:58:33;;;;;;;6.88;2.60;;;;;;;0.94;100.00;94219.75;20372189;28;20747;-73
2021/12/07 22:08:35;;;;;;;7.97;2.58;;;;;;;0.85;100.00;94158.84;20360846;28;20058;-73
2021/12/07 22:18:35;;;;;;;12.18;2.47;;;;;;;0.77;100.00;94112.56;20349565;28;20515;-74
2021/12/07 22:28:36;;;;;;;14.57;3.05;;;;;;;0.66;100.00;94101.47;20400521;28;20411;-74
2021/12/07 22:38:37;;;;;;;10.38;3.55;;;;;;;0.74;100.00;94095.66;20415344;28;20519;-74
2021/12/07 22:48:37;;;;;;;12.48;4.20;;;;;;;0.86;100.00;94081.44;20429616;28;20732;-74
2021/12/07 22:58:38;;;;;;;11.93;3.42;;;;;;;0.82;100.00;94064.81;20425385;28;20039;-74
2021/12/07 23:08:42;;;;;;;12.10;3.90;;;;;;;0.93;100.00;94067.00;20412389;28;20043;-74
2021/12/07 23:18:43;;;;;;;10.85;4.28;;;;;;;1.13;100.00;94054.78;20404717;28;20082;-74
2021/12/07 23:28:43;;;;;;;10.00;3.63;;;;;;;1.15;100.00;94039.66;20423430;28;20055;-74
2021/12/07 23:38:47;;;;;;;8.90;3.25;;;;;;;1.28;100.00;94048.59;20410371;28;20089;-74
2021/12/07 23:48:48;;;;;;;5.15;2.03;;;;;;;1.52;100.00;94041.47;20429223;28;20051;-74
2021/12/07 23:58:49;;;;;;;4.85;1.92;;;;;;;1.60;100.00;94040.06;20435387;28;20129;-74
